Time;durP1;ratioP1;P1;durP2;ratioP2;P2;SDS_P1;SDS_P2;PMS_P1;PMS_P2;Temp;Humidity;BMP_temperature;BMP_pressure;BME280_temperature;BME280_humidity;BME280_pressure;Samples;Min_cycle;Max_cycle;Signal;HPM_P1;HPM_P2
2022/06/30 00:00:29;;;;;;;11.77;5.05;;;14.00;99.90;;;;;;4976687;28;20026;-75
2022/06/30 00:02:55;;;;;;;10.60;4.60;;;14.00;99.90;;;;;;4982719;28;20400;-74
2022/06/30 00:05:21;;;;;;;9.85;4.20;;;14.00;99.90;;;;;;4962686;28;20075;-75
2022/06/30 00:07:47;;;;;;;10.32;4.55;;;14.00;99.90;;;;;;4982481;28;20159;-75
2022/06/30 00:10:13;;;;;;;11.98;4.60;;;13.90;99.90;;;;;;4976949;28;20034;-74
2022/06/30 00:12:39;;;;;;;10.35;5.10;;;13.90;99.90;;;;;;4965098;28;20027;-74
2022/06/30 00:15:05;;;;;;;18.50;5.50;;;13.90;99.90;;;;;;4964779;28;20067;-75
2022/06/30 00:17:31;;;;;;;15.45;4.93;;;13.90;99.90;;;;;;4975602;28;20034;-75
2022/06/30 00:19:56;;;;;;;14.32;5.07;;;13.80;99.90;;;;;;4963352;28;20041;-75
2022/06/30 00:22:22;;;;;;;15.35;4.80;;;13.80;99.90;;;;;;4962632;28;20366;-75
2022/06/30 00:24:47;;;;;;;11.50;4.40;;;13.80;99.90;;;;;;4961906;28;20389;-75
2022/06/30 00:27:15;;;;;;;12.13;4.20;;;13.70;99.90;;;;;;4972528;28;20107;-75
2022/06/30 00:29:41;;;;;;;14.98;4.45;;;13.80;99.90;;;;;;4966734;28;20035;-75
2022/06/30 00:32:07;;;;;;;13.95;4.20;;;13.80;99.90;;;;;;4981540;28;20459;-74
2022/06/30 00:34:32;;;;;;;11.77;4.32;;;13.70;99.90;;;;;;4979245;28;20111;-74
2022/06/30 00:36:58;;;;;;;13.95;4.95;;;13.70;99.90;;;;;;4977749;28;20382;-74
2022/06/30 00:39:24;;;;;;;11.50;4.80;;;13.70;99.90;;;;;;4982868;28;20113;-73
2022/06/30 00:41:49;;;;;;;9.20;4.68;;;13.60;99.90;;;;;;4977270;28;20030;-73
2022/06/30 00:44:15;;;;;;;12.25;5.20;;;13.60;99.90;;;;;;4961683;28;20026;-74
2022/06/30 00:46:41;;;;;;;11.35;4.88;;;13.60;99.90;;;;;;4975645;28;20043;-74
2022/06/30 00:49:07;;;;;;;15.52;5.18;;;13.60;99.90;;;;;;4982590;28;20525;-73
2022/06/30 00:51:33;;;;;;;12.95;4.63;;;13.50;99.90;;;;;;4969393;28;20031;-74
2022/06/30 00:54:02;;;;;;;11.20;4.10;;;13.50;99.90;;;;;;4963452;28;20037;-75
2022/06/30 00:56:29;;;;;;;11.75;3.92;;;13.50;99.90;;;;;;4963155;28;20031;-74
2022/06/30 00:59:00;;;;;;;16.73;4.78;;;13.50;99.90;;;;;;4966696;28;20042;-75
2022/06/30 01:01:26;;;;;;;9.40;4.22;;;13.50;99.90;;;;;;4963891;28;20190;-74
2022/06/30 01:03:55;;;;;;;8.68;4.55;;;13.50;99.90;;;;;;4963403;28;20066;-75
2022/06/30 01:06:22;;;;;;;10.77;4.88;;;13.50;99.90;;;;;;4962789;28;20042;-74
2022/06/30 01:08:49;;;;;;;10.77;4.35;;;13.40;99.90;;;;;;4962860;28;20122;-75
2022/06/30 01:14:01;;;;;;;13.95;4.13;;;13.40;99.90;;;;;;4975329;28;20100;-74
2022/06/30 01:16:26;;;;;;;9.63;3.70;;;13.40;99.90;;;;;;4972495;28;20034;-75
2022/06/30 01:18:52;;;;;;;9.48;3.95;;;13.40;99.90;;;;;;4972401;28;20089;-74
2022/06/30 01:21:18;;;;;;;19.77;3.95;;;13.40;99.90;;;;;;4963527;28;20039;-75
2022/06/30 01:23:44;;;;;;;11.45;4.30;;;13.40;99.90;;;;;;4968079;28;20097;-75
2022/06/30 01:26:10;;;;;;;13.20;4.28;;;13.40;99.90;;;;;;4968091;28;20414;-75
2022/06/30 01:28:35;;;;;;;20.15;4.63;;;13.40;99.90;;;;;;4981464;28;20118;-74
2022/06/30 01:31:01;;;;;;;15.15;4.00;;;13.40;99.90;;;;;;4962906;28;20062;-75
2022/06/30 01:33:27;;;;;;;12.13;4.25;;;13.40;99.90;;;;;;4962977;28;20027;-74
2022/06/30 01:35:56;;;;;;;11.65;4.35;;;13.40;99.90;;;;;;4960005;28;20096;-74
2022/06/30 01:38:22;;;;;;;12.75;3.85;;;13.40;99.90;;;;;;4966637;28;20501;-74
2022/06/30 01:40:48;;;;;;;8.20;3.13;;;13.30;99.90;;;;;;4967275;28;20041;-74
2022/06/30 01:43:14;;;;;;;11.18;3.50;;;13.30;99.90;;;;;;4974405;28;20456;-74
2022/06/30 01:45:41;;;;;;;9.40;3.10;;;13.30;99.90;;;;;;4966282;28;20061;-75
2022/06/30 01:48:08;;;;;;;8.73;3.42;;;13.30;99.90;;;;;;4982794;28;20030;-75
2022/06/30 01:50:34;;;;;;;7.43;3.58;;;13.30;99.90;;;;;;4973372;28;20065;-74
2022/06/30 01:53:00;;;;;;;8.95;3.38;;;13.30;99.90;;;;;;4959719;28;20371;-74
2022/06/30 01:55:27;;;;;;;12.77;4.07;;;13.30;99.90;;;;;;4973248;28;20690;-74
2022/06/30 01:57:53;;;;;;;12.75;3.60;;;13.30;99.90;;;;;;4960882;28;20022;-75
2022/06/30 02:00:21;;;;;;;11.45;3.58;;;13.30;99.90;;;;;;4973969;28;20437;-75
2022/06/30 02:02:50;;;;;;;11.68;3.85;;;13.20;99.90;;;;;;4958420;28;20035;-75
2022/06/30 02:05:17;;;;;;;10.75;3.15;;;13.20;99.90;;;;;;4958974;28;20110;-74
2022/06/30 02:07:43;;;;;;;13.30;4.07;;;13.20;99.90;;;;;;4963421;28;20100;-74
2022/06/30 02:10:11;;;;;;;9.13;3.80;;;13.20;99.90;;;;;;4959031;28;20062;-75
2022/06/30 02:12:47;;;;;;;6.88;2.88;;;13.20;99.90;;;;;;4971773;28;20206;-75
2022/06/30 02:15:14;;;;;;;12.75;3.72;;;13.30;99.90;;;;;;4958923;28;20035;-74
2022/06/30 02:17:41;;;;;;;7.65;3.70;;;13.30;99.90;;;;;;4959437;28;20060;-75
2022/06/30 02:20:08;;;;;;;11.52;3.53;;;13.20;99.90;;;;;;4970693;28;20155;-74
2022/06/30 02:22:38;;;;;;;9.73;3.47;;;13.20;99.90;;;;;;4969375;28;20479;-74
2022/06/30 02:25:06;;;;;;;11.10;3.60;;;13.20;99.90;;;;;;4970475;28;20039;-74
2022/06/30 02:27:32;;;;;;;8.52;3.63;;;13.20;99.90;;;;;;4956658;28;20454;-75
2022/06/30 02:29:58;;;;;;;10.13;3.72;;;13.20;99.90;;;;;;4956448;28;20031;-74
2022/06/30 02:32:23;;;;;;;9.13;3.55;;;13.10;99.90;;;;;;4973793;28;20523;-75
2022/06/30 02:34:50;;;;;;;15.90;4.10;;;13.10;99.90;;;;;;4956793;28;20410;-75
2022/06/30 02:37:16;;;;;;;10.48;4.07;;;13.10;99.90;;;;;;4956596;28;20523;-75
2022/06/30 02:39:42;;;;;;;12.63;4.00;;;13.10;99.90;;;;;;4958087;28;20488;-75
2022/06/30 02:42:08;;;;;;;10.77;4.28;;;13.10;99.90;;;;;;4968451;28;20057;-75
2022/06/30 02:44:34;;;;;;;12.38;4.32;;;13.10;99.90;;;;;;4962786;28;20027;-74
2022/06/30 02:47:00;;;;;;;11.85;4.53;;;13.10;99.90;;;;;;4959645;28;20128;-74
2022/06/30 02:49:25;;;;;;;10.02;3.85;;;13.10;99.90;;;;;;4973307;28;20030;-74
2022/06/30 02:51:51;;;;;;;9.60;3.30;;;13.10;99.90;;;;;;4965848;28;20038;-74
2022/06/30 02:54:17;;;;;;;10.40;3.45;;;13.00;99.90;;;;;;4970804;28;20080;-75
2022/06/30 02:56:43;;;;;;;12.95;3.38;;;13.00;99.90;;;;;;4969739;28;20075;-74
2022/06/30 02:59:09;;;;;;;12.52;3.47;;;13.00;99.90;;;;;;4965379;28;20096;-75
2022/06/30 03:01:35;;;;;;;11.02;3.40;;;13.00;99.90;;;;;;4969869;28;20062;-74
2022/06/30 03:04:02;;;;;;;8.57;3.15;;;12.90;99.90;;;;;;4971971;28;20133;-75
2022/06/30 03:06:32;;;;;;;8.80;2.97;;;12.80;99.90;;;;;;4963314;28;20096;-74
2022/06/30 03:08:59;;;;;;;8.57;3.53;;;12.70;99.90;;;;;;4976590;28;20057;-74
2022/06/30 03:11:25;;;;;;;9.50;3.75;;;12.70;99.90;;;;;;4959944;28;20039;-75
2022/06/30 03:13:51;;;;;;;12.38;3.50;;;12.80;99.90;;;;;;4958425;28;20450;-76
2022/06/30 03:16:20;;;;;;;8.45;3.35;;;12.80;99.90;;;;;;4963486;28;20033;-75
2022/06/30 03:18:46;;;;;;;9.52;4.18;;;12.90;99.90;;;;;;4961265;28;20069;-75
2022/06/30 03:21:11;;;;;;;11.52;3.47;;;12.90;99.90;;;;;;4962552;28;20051;-75
2022/06/30 03:23:37;;;;;;;8.90;3.38;;;12.90;99.90;;;;;;4959193;28;20037;-75
2022/06/30 03:26:03;;;;;;;16.20;3.65;;;13.00;99.90;;;;;;4974926;28;20284;-73
2022/06/30 03:28:29;;;;;;;10.38;3.28;;;13.00;99.90;;;;;;4977478;28;20034;-73
2022/06/30 03:30:55;;;;;;;9.88;4.03;;;13.00;99.90;;;;;;4977868;28;20030;-73
2022/06/30 03:33:21;;;;;;;10.60;3.70;;;13.00;99.90;;;;;;4970201;28;20496;-74
2022/06/30 03:35:47;;;;;;;9.25;3.85;;;13.10;99.90;;;;;;4969873;28;20416;-73
2022/06/30 03:38:13;;;;;;;10.55;4.30;;;13.10;99.90;;;;;;4977595;28;20026;-73
2022/06/30 03:40:40;;;;;;;12.63;4.13;;;13.10;99.90;;;;;;4977190;28;20185;-73
2022/06/30 03:43:06;;;;;;;9.50;4.10;;;13.10;99.90;;;;;;4976913;28;20049;-73
2022/06/30 03:45:32;;;;;;;6.97;3.38;;;13.10;99.90;;;;;;4964390;28;20034;-73
2022/06/30 03:48:06;;;;;;;6.53;3.33;;;13.10;99.90;;;;;;4976858;28;20034;-75
2022/06/30 03:50:32;;;;;;;8.50;3.65;;;13.00;99.90;;;;;;4967877;28;20059;-73
2022/06/30 03:52:58;;;;;;;9.27;3.58;;;13.00;99.90;;;;;;4976013;28;20038;-73
2022/06/30 03:55:24;;;;;;;10.00;3.53;;;13.00;99.90;;;;;;4971481;28;20779;-74
2022/06/30 03:57:50;;;;;;;8.40;3.70;;;13.10;99.90;;;;;;4967735;28;20641;-73
2022/06/30 04:00:16;;;;;;;9.98;3.55;;;13.10;99.90;;;;;;4964117;28;20297;-73
2022/06/30 04:02:42;;;;;;;12.63;3.75;;;13.10;99.90;;;;;;4975502;28;20058;-74
2022/06/30 04:05:08;;;;;;;14.73;8.80;;;13.10;99.90;;;;;;4959832;28;20074;-74
2022/06/30 04:07:45;;;;;;;15.25;8.20;;;13.10;99.90;;;;;;4961825;28;20035;-73
2022/06/30 04:10:12;;;;;;;17.15;8.82;;;13.10;99.90;;;;;;4958647;28;20031;-74
2022/06/30 04:12:38;;;;;;;20.67;7.28;;;13.10;99.90;;;;;;4957712;28;20026;-74
2022/06/30 04:15:05;;;;;;;15.07;6.88;;;13.00;99.90;;;;;;4960517;28;20121;-74
2022/06/30 04:17:34;;;;;;;11.02;6.35;;;13.00;99.90;;;;;;4957038;28;20035;-73
2022/06/30 04:20:01;;;;;;;15.25;9.52;;;13.00;99.90;;;;;;4970417;28;20289;-73
2022/06/30 04:22:26;;;;;;;19.08;11.98;;;12.90;99.90;;;;;;4958281;28;20023;-73
2022/06/30 04:24:52;;;;;;;31.35;16.10;;;12.90;99.90;;;;;;4958678;28;20159;-74
2022/06/30 04:27:18;;;;;;;32.33;21.45;;;12.90;99.90;;;;;;4961765;28;20278;-74
2022/06/30 04:29:43;;;;;;;42.28;23.73;;;13.00;99.90;;;;;;4961871;28;20039;-73
2022/06/30 04:34:53;;;;;;;47.22;27.67;;;13.20;99.90;;;;;;4972338;28;20041;-74
2022/06/30 04:37:19;;;;;;;43.83;26.20;;;13.40;99.90;;;;;;4976275;28;20034;-74
2022/06/30 04:39:45;;;;;;;39.55;25.00;;;13.50;99.90;;;;;;4980630;28;20052;-73
2022/06/30 04:42:10;;;;;;;28.52;18.05;;;13.50;99.90;;;;;;4976705;28;20475;-74
2022/06/30 04:44:36;;;;;;;28.83;16.70;;;13.50;99.90;;;;;;4973875;28;20069;-73
2022/06/30 04:47:02;;;;;;;17.13;10.93;;;13.50;99.90;;;;;;4981515;28;20042;-74
2022/06/30 04:49:27;;;;;;;23.52;10.75;;;13.60;99.90;;;;;;4982971;28;20035;-73
2022/06/30 04:51:53;;;;;;;14.95;8.13;;;13.60;99.90;;;;;;4968184;28;20026;-73
2022/06/30 04:54:19;;;;;;;9.00;5.90;;;13.50;99.90;;;;;;4961896;28;20620;-74
2022/06/30 04:56:44;;;;;;;13.68;6.93;;;13.50;99.90;;;;;;4979658;28;20156;-73
2022/06/30 04:59:10;;;;;;;14.20;7.32;;;13.50;99.90;;;;;;4974944;28;20075;-73
2022/06/30 05:01:36;;;;;;;11.38;6.68;;;13.60;99.90;;;;;;4972886;28;20034;-73
2022/06/30 05:04:01;;;;;;;12.50;5.65;;;13.60;99.90;;;;;;4960359;28;20062;-73
2022/06/30 05:06:27;;;;;;;7.88;4.45;;;13.60;99.90;;;;;;4964859;28;20046;-74
2022/06/30 05:08:52;;;;;;;10.32;3.95;;;13.60;99.90;;;;;;4958750;28;20029;-73
2022/06/30 05:11:18;;;;;;;10.50;4.55;;;13.60;99.90;;;;;;4961129;28;20089;-74
2022/06/30 05:13:44;;;;;;;11.05;4.57;;;13.60;99.90;;;;;;4962240;28;20038;-73
2022/06/30 05:16:09;;;;;;;10.95;4.35;;;13.60;99.90;;;;;;4973077;28;20051;-74
2022/06/30 05:18:35;;;;;;;10.80;4.40;;;13.70;99.90;;;;;;4974897;28;20030;-74
2022/06/30 05:21:01;;;;;;;10.20;4.78;;;13.70;99.90;;;;;;4964127;28;20351;-73
2022/06/30 05:23:27;;;;;;;10.13;4.50;;;13.80;99.90;;;;;;4979953;28;20365;-73
2022/06/30 05:28:39;;;;;;;12.30;4.60;;;13.90;99.90;;;;;;4971294;28;20090;-74
2022/06/30 05:31:05;;;;;;;14.35;4.30;;;14.00;99.90;;;;;;4970428;28;20035;-74
2022/06/30 05:33:30;;;;;;;14.98;4.25;;;14.10;99.90;;;;;;4973883;28;20049;-74
2022/06/30 05:35:57;;;;;;;10.02;4.15;;;14.20;99.90;;;;;;4968313;28;20031;-74
2022/06/30 05:38:23;;;;;;;14.13;4.05;;;14.40;99.90;;;;;;4979468;28;20057;-74
2022/06/30 05:40:49;;;;;;;11.07;3.72;;;14.30;99.90;;;;;;4961866;28;20383;-74
2022/06/30 05:43:16;;;;;;;10.00;3.88;;;14.30;99.90;;;;;;4957663;28;20034;-73
2022/06/30 05:45:42;;;;;;;9.52;3.53;;;14.40;99.90;;;;;;4968153;28;20088;-73
2022/06/30 05:48:08;;;;;;;9.27;3.50;;;14.40;99.90;;;;;;4976105;28;20035;-73
2022/06/30 05:50:34;;;;;;;9.27;3.45;;;14.60;99.90;;;;;;4966626;28;20089;-73
2022/06/30 05:53:00;;;;;;;6.57;3.20;;;14.60;99.90;;;;;;4971085;28;20031;-73
2022/06/30 05:55:25;;;;;;;9.48;3.72;;;14.60;99.90;;;;;;4964681;28;20514;-73
2022/06/30 05:58:01;;;;;;;17.08;3.63;;;14.70;99.90;;;;;;4964744;28;20031;-73
2022/06/30 06:00:29;;;;;;;9.13;3.42;;;14.60;99.90;;;;;;4960977;28;20449;-73
2022/06/30 06:02:55;;;;;;;9.90;3.67;;;14.50;99.90;;;;;;4963577;28;20042;-73
2022/06/30 06:05:22;;;;;;;9.50;2.80;;;14.60;99.90;;;;;;4967577;28;20055;-74
2022/06/30 06:07:48;;;;;;;6.82;3.22;;;14.70;99.90;;;;;;4962703;28;20517;-74
2022/06/30 06:10:14;;;;;;;7.20;3.03;;;14.80;99.90;;;;;;4978192;28;20457;-74
2022/06/30 06:12:43;;;;;;;10.07;3.08;;;14.90;99.90;;;;;;4967119;28;20026;-74
2022/06/30 06:15:10;;;;;;;8.07;2.78;;;15.00;99.90;;;;;;4959240;28;21009;-74
2022/06/30 06:17:47;;;;;;;10.77;3.25;;;15.10;99.90;;;;;;4971965;28;20041;-74
2022/06/30 06:20:15;;;;;;;6.40;2.88;;;15.20;99.90;;;;;;4966552;28;20027;-74
2022/06/30 06:22:41;;;;;;;9.35;2.42;;;15.20;99.90;;;;;;4968668;28;20027;-74
2022/06/30 06:25:08;;;;;;;10.73;3.47;;;15.20;99.90;;;;;;4957491;28;20574;-74
2022/06/30 06:27:34;;;;;;;10.75;3.80;;;15.50;99.90;;;;;;4967050;28;20026;-74
2022/06/30 06:30:03;;;;;;;8.35;3.13;;;15.50;99.90;;;;;;4965104;28;20038;-73
2022/06/30 06:32:28;;;;;;;8.88;2.97;;;15.70;99.90;;;;;;4957547;28;20030;-73
2022/06/30 06:34:54;;;;;;;6.82;3.00;;;15.60;99.90;;;;;;4965171;28;20623;-74
2022/06/30 06:37:19;;;;;;;5.05;2.58;;;15.60;99.90;;;;;;4962508;28;20031;-74
2022/06/30 06:39:45;;;;;;;5.70;2.30;;;15.70;99.90;;;;;;4970238;28;20031;-74
2022/06/30 06:42:11;;;;;;;5.65;2.25;;;15.60;99.90;;;;;;4962250;28;20043;-72
2022/06/30 06:44:36;;;;;;;11.75;2.50;;;15.60;99.90;;;;;;4968098;28;20485;-74
2022/06/30 06:47:02;;;;;;;9.05;1.48;;;15.50;99.90;;;;;;4961813;28;20066;-74
2022/06/30 06:49:28;;;;;;;7.95;1.38;;;15.30;99.90;;;;;;4955312;28;20042;-74
2022/06/30 06:51:54;;;;;;;5.72;1.70;;;15.30;99.90;;;;;;4955887;28;20046;-74
2022/06/30 06:54:20;;;;;;;7.28;1.63;;;15.30;99.90;;;;;;4961630;28;20039;-74
2022/06/30 06:56:45;;;;;;;16.15;3.25;;;15.20;99.90;;;;;;4965444;28;20057;-74
2022/06/30 06:59:11;;;;;;;22.02;11.10;;;15.10;99.90;;;;;;4991779;28;20148;-74
2022/06/30 07:01:37;;;;;;;9.27;2.97;;;15.00;99.90;;;;;;4966755;28;20065;-74
2022/06/30 07:04:02;;;;;;;6.00;1.90;;;14.80;99.90;;;;;;4955435;28;20330;-74
2022/06/30 07:06:28;;;;;;;5.05;2.30;;;14.80;99.90;;;;;;4955386;28;20045;-74
2022/06/30 07:08:54;;;;;;;4.38;1.60;;;14.80;99.90;;;;;;4958686;28;20034;-74
2022/06/30 07:11:19;;;;;;;3.00;1.48;;;14.90;99.90;;;;;;4958599;28;20090;-73
2022/06/30 07:13:45;;;;;;;4.53;1.27;;;15.10;99.90;;;;;;4972693;28;20026;-74
2022/06/30 07:16:12;;;;;;;5.43;1.02;;;15.20;99.90;;;;;;4960071;28;20041;-74
2022/06/30 07:18:37;;;;;;;6.20;1.42;;;15.40;99.90;;;;;;4958102;28;20659;-73
2022/06/30 07:21:03;;;;;;;5.28;1.60;;;15.40;99.90;;;;;;4957154;28;20047;-73
2022/06/30 07:23:29;;;;;;;3.47;1.30;;;15.70;99.90;;;;;;4950738;28;20105;-74
2022/06/30 07:25:54;;;;;;;4.80;1.30;;;16.20;99.90;;;;;;4966227;28;20093;-74
2022/06/30 07:28:20;;;;;;;7.32;2.83;;;16.40;99.90;;;;;;4956082;28;20334;-74
2022/06/30 07:30:45;;;;;;;7.45;2.08;;;16.60;99.90;;;;;;4959959;28;20137;-74
2022/06/30 07:33:11;;;;;;;4.53;2.85;;;16.60;99.90;;;;;;4962987;28;20031;-74
2022/06/30 07:35:37;;;;;;;6.10;1.23;;;16.80;99.90;;;;;;4964697;28;20042;-75
2022/06/30 07:38:02;;;;;;;4.28;1.10;;;17.10;99.90;;;;;;4965258;28;20038;-74
2022/06/30 07:40:28;;;;;;;3.17;1.25;;;17.30;99.90;;;;;;4960481;28;20103;-75
2022/06/30 07:42:55;;;;;;;5.68;1.10;;;17.70;99.90;;;;;;4959528;28;20035;-75
2022/06/30 07:45:22;;;;;;;6.40;1.70;;;18.10;99.90;;;;;;4967281;28;20031;-74
2022/06/30 07:47:49;;;;;;;3.30;1.10;;;18.90;99.90;;;;;;4962905;28;20090;-75
2022/06/30 07:50:17;;;;;;;3.70;1.13;;;20.00;99.90;;;;;;4962366;28;20470;-74
2022/06/30 07:52:43;;;;;;;4.28;0.80;;;20.60;99.90;;;;;;4958123;28;20034;-74
2022/06/30 07:55:09;;;;;;;5.47;0.98;;;20.60;99.90;;;;;;4955943;28;20049;-75
2022/06/30 07:57:42;;;;;;;4.90;1.00;;;19.90;99.90;;;;;;4956357;28;20038;-74
2022/06/30 08:00:09;;;;;;;4.75;1.15;;;19.40;99.90;;;;;;4959550;28;21448;-75
2022/06/30 08:02:35;;;;;;;6.05;1.85;;;18.80;99.90;;;;;;4971931;28;20100;-74
2022/06/30 08:05:00;;;;;;;4.90;1.63;;;18.40;99.90;;;;;;4972092;28;20505;-74
2022/06/30 08:07:27;;;;;;;6.40;1.58;;;18.10;99.90;;;;;;4961722;28;20145;-74
2022/06/30 08:09:53;;;;;;;8.38;1.83;;;17.90;99.90;;;;;;4965878;28;20030;-73
2022/06/30 08:12:19;;;;;;;5.22;1.80;;;17.80;99.90;;;;;;4958407;28;20106;-74
2022/06/30 08:14:46;;;;;;;4.43;1.67;;;17.70;99.90;;;;;;4963560;28;20557;-73
2022/06/30 08:17:12;;;;;;;6.20;0.80;;;17.70;99.90;;;;;;4967183;28;20018;-74
2022/06/30 08:19:37;;;;;;;5.28;2.10;;;17.50;99.90;;;;;;4961693;28;20433;-74
2022/06/30 08:22:03;;;;;;;4.28;1.30;;;17.30;99.90;;;;;;4962618;28;20537;-73
2022/06/30 08:24:29;;;;;;;3.40;0.80;;;17.50;99.90;;;;;;4953090;28;20038;-74
2022/06/30 08:26:55;;;;;;;5.03;0.90;;;18.50;99.90;;;;;;4961894;28;20042;-74
2022/06/30 08:29:21;;;;;;;3.70;0.73;;;18.80;99.90;;;;;;4964584;28;20044;-74
2022/06/30 08:31:46;;;;;;;8.00;1.20;;;19.20;99.90;;;;;;4961780;28;20351;-73
2022/06/30 08:34:12;;;;;;;8.07;1.23;;;19.20;99.90;;;;;;4960252;28;20500;-74
2022/06/30 08:36:38;;;;;;;6.25;1.63;;;19.50;99.90;;;;;;4961835;28;20052;-74
2022/06/30 08:39:03;;;;;;;5.32;1.38;;;19.80;99.90;;;;;;4979973;28;20531;-74
2022/06/30 08:44:19;;;;;;;8.27;2.63;;;19.50;99.90;;;;;;4967625;28;20465;-73
2022/06/30 08:46:46;;;;;;;9.35;2.33;;;19.10;99.90;;;;;;4974799;28;20035;-74
2022/06/30 08:49:11;;;;;;;6.70;0.88;;;18.80;99.90;;;;;;4964974;28;20260;-73
2022/06/30 08:51:42;;;;;;;1.85;0.70;;;18.50;99.90;;;;;;4973983;28;20109;-74
2022/06/30 08:54:10;;;;;;;5.88;0.88;;;18.30;99.90;;;;;;4967531;28;20029;-74
2022/06/30 08:56:36;;;;;;;3.35;0.55;;;18.20;99.90;;;;;;4966445;28;20294;-74
2022/06/30 08:59:05;;;;;;;4.88;0.77;;;18.00;99.90;;;;;;4965378;28;20635;-74
2022/06/30 09:01:31;;;;;;;5.15;1.30;;;18.00;99.90;;;;;;4969313;28;20731;-74
2022/06/30 09:03:57;;;;;;;2.15;0.60;;;18.20;99.90;;;;;;4961126;28;20149;-73
2022/06/30 09:06:23;;;;;;;2.90;0.63;;;18.40;99.90;;;;;;4968402;28;20065;-74
2022/06/30 09:08:49;;;;;;;2.50;0.70;;;18.50;99.90;;;;;;4959563;28;20031;-74
2022/06/30 09:11:15;;;;;;;3.72;0.50;;;18.70;99.90;;;;;;4965460;28;20050;-74
2022/06/30 09:13:44;;;;;;;4.63;1.00;;;19.00;99.90;;;;;;4973439;28;20034;-74
2022/06/30 09:16:10;;;;;;;1.70;0.52;;;19.50;99.90;;;;;;4958763;28;20177;-74
2022/06/30 09:18:36;;;;;;;4.90;1.15;;;20.40;99.90;;;;;;4967532;28;20190;-74
2022/06/30 09:21:18;;;;;;;5.38;0.60;;;21.30;99.90;;;;;;4971946;28;20034;-74
2022/06/30 09:23:46;;;;;;;2.85;0.45;;;22.10;99.90;;;;;;4976338;28;20425;-74
2022/06/30 09:26:20;;;;;;;3.33;0.57;;;22.00;99.90;;;;;;4969373;28;20129;-74
2022/06/30 09:28:47;;;;;;;4.90;0.82;;;22.10;99.90;;;;;;4962011;28;20058;-74
2022/06/30 09:31:15;;;;;;;3.45;0.90;;;22.10;99.90;;;;;;4967728;28;20276;-74
2022/06/30 09:33:45;;;;;;;3.97;0.80;;;22.10;99.90;;;;;;4282347;28;10000733;-75
2022/06/30 09:36:28;;;;;;;3.50;0.65;;;21.70;99.90;;;;;;4968355;28;20248;-73
2022/06/30 09:39:04;;;;;;;3.58;0.80;;;21.20;99.90;;;;;;4968914;28;20105;-74
2022/06/30 09:41:32;;;;;;;2.60;0.50;;;20.90;99.90;;;;;;4976653;28;20389;-74
2022/06/30 09:43:58;;;;;;;5.07;0.70;;;20.70;99.90;;;;;;4974007;28;20057;-74
2022/06/30 09:46:23;;;;;;;3.13;0.57;;;20.70;99.90;;;;;;4964791;28;20047;-73
2022/06/30 09:48:49;;;;;;;4.18;0.57;;;20.40;99.90;;;;;;4959391;28;20352;-74
2022/06/30 09:51:17;;;;;;;4.65;0.73;;;20.00;99.90;;;;;;4964287;28;20219;-74
2022/06/30 09:53:43;;;;;;;3.85;0.50;;;19.80;99.90;;;;;;4963906;28;20042;-73
2022/06/30 09:56:14;;;;;;;2.60;0.50;;;19.70;99.90;;;;;;4961050;28;20565;-74
2022/06/30 09:58:42;;;;;;;1.45;0.50;;;19.40;99.90;;;;;;4959053;28;20026;-74
2022/06/30 10:01:09;;;;;;;3.90;0.50;;;19.10;99.90;;;;;;4963246;28;20174;-73
2022/06/30 10:03:44;;;;;;;3.75;0.77;;;19.10;99.90;;;;;;4960131;28;20057;-73
2022/06/30 10:06:13;;;;;;;4.40;0.60;;;19.40;99.90;;;;;;4957379;28;20630;-73
2022/06/30 10:08:39;;;;;;;4.80;0.80;;;19.40;99.90;;;;;;4966339;28;20274;-73
2022/06/30 10:11:07;;;;;;;2.47;0.90;;;19.40;99.90;;;;;;4957181;28;20026;-73
2022/06/30 10:13:38;;;;;;;5.88;0.65;;;19.30;99.90;;;;;;4959019;28;20201;-73
2022/06/30 10:16:05;;;;;;;3.08;0.60;;;19.80;99.90;;;;;;4955053;28;20209;-73
2022/06/30 10:18:35;;;;;;;4.35;0.80;;;20.00;99.90;;;;;;4954115;28;20490;-73
2022/06/30 10:21:01;;;;;;;3.10;0.40;;;20.30;99.90;;;;;;4955277;28;20125;-73
2022/06/30 10:23:28;;;;;;;4.25;0.80;;;20.50;99.90;;;;;;4953130;28;20034;-73
2022/06/30 10:25:55;;;;;;;3.72;0.60;;;20.40;99.90;;;;;;4953273;28;20042;-73
2022/06/30 10:28:25;;;;;;;3.80;0.85;;;20.40;99.90;;;;;;4956286;28;20121;-73
2022/06/30 10:31:00;;;;;;;4.28;0.60;;;20.50;99.90;;;;;;4952315;28;20516;-72
2022/06/30 10:33:33;;;;;;;3.03;0.70;;;20.50;99.90;;;;;;4952446;28;20469;-72
2022/06/30 10:36:14;;;;;;;3.85;0.75;;;20.00;99.90;;;;;;4955955;28;20041;-73
2022/06/30 10:38:50;;;;;;;2.97;0.60;;;20.40;99.90;;;;;;4963047;28;20472;-73
2022/06/30 10:41:17;;;;;;;4.75;0.80;;;20.20;99.90;;;;;;4965161;28;20320;-72
2022/06/30 10:44:04;;;;;;;3.55;0.82;;;20.30;99.90;;;;;;4964838;28;20093;-73
2022/06/30 10:46:45;;;;;;;5.50;0.55;;;20.40;99.90;;;;;;4953718;28;20096;-73
2022/06/30 10:49:12;;;;;;;3.63;0.43;;;20.20;99.90;;;;;;4959286;28;20031;-73
2022/06/30 10:51:39;;;;;;;2.65;0.70;;;20.20;99.90;;;;;;4974282;28;20490;-72
2022/06/30 10:54:05;;;;;;;1.90;0.65;;;19.90;99.90;;;;;;4953616;28;20039;-72
2022/06/30 10:56:54;;;;;;;3.30;0.47;;;19.60;99.90;;;;;;4957721;28;20531;-72
2022/06/30 10:59:29;;;;;;;2.83;0.60;;;19.30;99.90;;;;;;4956536;28;20038;-73
2022/06/30 11:02:07;;;;;;;4.45;0.57;;;19.40;99.90;;;;;;4959145;28;20666;-73
2022/06/30 11:04:33;;;;;;;2.03;0.30;;;19.40;99.90;;;;;;4950066;28;20337;-74
2022/06/30 11:07:03;;;;;;;6.68;0.75;;;19.50;99.90;;;;;;4958216;28;20124;-73
2022/06/30 11:09:58;;;;;;;3.60;0.63;;;19.60;99.90;;;;;;4967625;28;20026;-80
2022/06/30 11:12:31;;;;;;;3.50;0.57;;;20.00;99.90;;;;;;4950508;28;20438;-78
2022/06/30 11:14:58;;;;;;;2.45;0.70;;;20.30;99.90;;;;;;4964000;28;20366;-78
2022/06/30 11:17:26;;;;;;;4.32;0.88;;;20.50;99.90;;;;;;4965082;28;20097;-78
2022/06/30 11:20:06;;;;;;;3.92;0.82;;;20.90;99.90;;;;;;4961204;28;20066;-78
2022/06/30 11:22:32;;;;;;;3.58;0.52;;;21.90;99.90;;;;;;4961778;28;20060;-79
2022/06/30 11:25:02;;;;;;;4.13;0.80;;;22.60;99.90;;;;;;4957153;28;20058;-78
2022/06/30 11:27:29;;;;;;;4.18;1.08;;;22.60;99.90;;;;;;4958502;28;20038;-78
2022/06/30 11:30:00;;;;;;;7.13;0.82;;;22.70;97.60;;;;;;4957168;28;20125;-77
2022/06/30 11:32:27;;;;;;;3.95;1.02;;;22.20;95.90;;;;;;4956394;28;20090;-79
2022/06/30 11:34:53;;;;;;;5.25;0.60;;;22.00;99.90;;;;;;4955546;28;20643;-77
2022/06/30 11:37:23;;;;;;;6.88;1.25;;;21.40;99.90;;;;;;4958117;28;20031;-78
2022/06/30 11:39:57;;;;;;;7.20;0.80;;;21.20;99.90;;;;;;4958316;28;20893;-78
2022/06/30 11:42:23;;;;;;;4.68;1.52;;;20.60;99.90;;;;;;4958324;28;20022;-78
2022/06/30 11:44:49;;;;;;;6.13;0.70;;;20.50;99.90;;;;;;4954949;28;20035;-76
2022/06/30 11:47:18;;;;;;;5.57;0.70;;;20.40;99.90;;;;;;4958798;28;20035;-78
2022/06/30 11:49:52;;;;;;;4.95;0.82;;;20.40;99.90;;;;;;4955813;28;20037;-79
2022/06/30 11:52:28;;;;;;;5.57;1.48;;;20.40;99.90;;;;;;4956262;28;20093;-77
2022/06/30 11:54:54;;;;;;;3.65;0.70;;;20.80;99.90;;;;;;4958362;28;20173;-77
2022/06/30 11:57:22;;;;;;;4.72;0.73;;;21.00;99.90;;;;;;4957627;28;20039;-78
2022/06/30 11:59:51;;;;;;;3.53;0.70;;;20.90;99.90;;;;;;4959773;28;20398;-78
2022/06/30 12:02:17;;;;;;;5.13;0.68;;;20.80;99.90;;;;;;4962839;28;20033;-77
2022/06/30 12:04:44;;;;;;;3.20;0.70;;;21.00;99.90;;;;;;4950917;28;20306;-78
2022/06/30 12:07:14;;;;;;;4.88;1.05;;;21.00;99.90;;;;;;4962113;28;20061;-78
2022/06/30 12:09:44;;;;;;;2.38;0.45;;;21.10;99.90;;;;;;4959443;28;20031;-77
2022/06/30 12:12:11;;;;;;;3.97;0.93;;;21.20;99.90;;;;;;4962374;28;20058;-76
2022/06/30 12:14:39;;;;;;;2.05;0.50;;;21.00;99.90;;;;;;4958113;28;20090;-78
2022/06/30 12:17:11;;;;;;;4.32;0.60;;;20.90;99.90;;;;;;4969436;28;20041;-80
2022/06/30 12:19:37;;;;;;;3.58;0.65;;;20.70;99.90;;;;;;4974208;28;20081;-77
2022/06/30 12:22:04;;;;;;;5.97;0.93;;;20.60;99.90;;;;;;4980457;28;20029;-76
2022/06/30 12:24:30;;;;;;;5.55;0.90;;;20.20;99.90;;;;;;4966709;28;20038;-76
2022/06/30 12:26:58;;;;;;;5.68;0.98;;;19.90;99.90;;;;;;4966284;28;20104;-77
2022/06/30 12:29:27;;;;;;;3.67;1.13;;;20.00;99.90;;;;;;4968842;28;20029;-77
2022/06/30 12:32:20;;;;;;;5.15;1.42;;;20.00;99.90;;;;;;4964343;28;20037;-79
2022/06/30 12:34:59;;;;;;;4.75;1.00;;;20.00;99.90;;;;;;4961318;28;20042;-77
2022/06/30 12:37:33;;;;;;;9.13;1.20;;;20.30;99.90;;;;;;4967014;28;20440;-76
2022/06/30 12:40:03;;;;;;;5.82;0.93;;;20.50;99.90;;;;;;4960759;28;20100;-76
2022/06/30 12:42:39;;;;;;;3.80;0.60;;;20.60;99.90;;;;;;3932974;28;10000447;-76
2022/06/30 12:45:05;;;;;;;5.45;1.63;;;20.80;99.90;;;;;;4969903;28;20109;-76
2022/06/30 12:47:31;;;;;;;3.97;1.08;;;20.60;99.90;;;;;;4970317;28;20133;-74
2022/06/30 12:49:57;;;;;;;7.93;1.15;;;20.80;99.90;;;;;;4974710;28;22159;-75
2022/06/30 12:52:23;;;;;;;4.80;0.75;;;20.60;99.90;;;;;;4970106;28;20037;-75
2022/06/30 12:54:57;;;;;;;6.07;0.80;;;20.40;99.90;;;;;;4972312;28;20017;-76